Time;durP1;ratioP1;P1;durP2;ratioP2;P2;SDS_P1;SDS_P2;PMS_P1;PMS_P2;Temp;Humidity;BMP_temperature;BMP_pressure;BME280_temperature;BME280_humidity;BME280_pressure;Samples;Min_cycle;Max_cycle;Signal;HPM_P1;HPM_P2
2023/04/25 00:00:48;;;;;;;23.43;8.47;;;8.00;99.90;;;;;;5007192;28;20223;-57
2023/04/25 00:03:18;;;;;;;22.13;8.67;;;8.00;99.90;;;;;;5010259;28;20222;-57
2023/04/25 00:05:47;;;;;;;15.70;8.00;;;8.00;99.90;;;;;;5011909;28;20309;-57
2023/04/25 00:08:17;;;;;;;27.57;9.37;;;8.00;99.90;;;;;;5011688;28;20268;-57
2023/04/25 00:10:46;;;;;;;22.57;7.73;;;8.00;99.90;;;;;;5006067;28;20221;-57
2023/04/25 00:13:14;;;;;;;20.80;7.73;;;8.00;99.90;;;;;;5015155;28;20779;-56
2023/04/25 00:15:42;;;;;;;18.77;7.80;;;8.00;99.90;;;;;;5006000;28;20250;-57
2023/04/25 00:18:11;;;;;;;17.77;7.93;;;8.00;99.90;;;;;;5010999;28;20309;-57
2023/04/25 00:20:39;;;;;;;20.67;8.20;;;8.00;99.90;;;;;;5006230;28;20218;-57
2023/04/25 00:23:07;;;;;;;17.60;7.40;;;8.00;99.90;;;;;;5012697;28;20221;-57
2023/04/25 00:25:37;;;;;;;22.03;6.90;;;8.00;99.90;;;;;;5010197;28;20229;-57
2023/04/25 00:28:05;;;;;;;20.27;7.13;;;8.00;99.90;;;;;;5009484;28;20202;-57
2023/04/25 00:30:33;;;;;;;20.30;7.07;;;7.90;99.90;;;;;;5008593;28;20643;-57
2023/04/25 00:33:01;;;;;;;14.70;6.37;;;8.00;99.90;;;;;;5007400;28;20214;-58
2023/04/25 00:35:29;;;;;;;19.13;6.87;;;7.90;99.90;;;;;;5012979;28;20227;-57
2023/04/25 00:37:58;;;;;;;26.03;7.43;;;8.00;99.90;;;;;;4992337;28;20263;-57
2023/04/25 00:40:26;;;;;;;16.93;6.97;;;7.90;99.90;;;;;;5003019;28;20213;-57
2023/04/25 00:42:56;;;;;;;16.70;6.97;;;7.90;99.90;;;;;;5015881;28;20194;-57
2023/04/25 00:45:30;;;;;;;17.50;6.27;;;7.90;99.90;;;;;;5016640;28;20213;-57
2023/04/25 00:47:58;;;;;;;21.33;6.70;;;7.90;99.90;;;;;;5006776;28;20213;-57
2023/04/25 00:50:26;;;;;;;18.17;6.50;;;8.00;99.90;;;;;;5004506;28;20240;-57
2023/04/25 00:52:55;;;;;;;18.20;6.77;;;7.90;99.90;;;;;;5016377;28;20217;-57
2023/04/25 00:55:23;;;;;;;24.97;6.93;;;8.00;99.90;;;;;;5012963;28;20194;-57
2023/04/25 00:57:52;;;;;;;15.77;6.10;;;8.00;99.90;;;;;;5021381;23;20273;-64
2023/04/25 01:00:22;;;;;;;19.07;6.53;;;8.00;99.90;;;;;;4942605;28;20392;-64
2023/04/25 01:05:41;;;;;;;21.33;5.90;;;7.90;99.90;;;;;;5177419;23;20235;-57
2023/04/25 01:08:09;;;;;;;22.67;6.30;;;7.90;99.90;;;;;;4973391;28;20235;-57
2023/04/25 01:10:38;;;;;;;28.23;6.43;;;7.90;99.90;;;;;;4982685;28;20191;-57
2023/04/25 01:13:06;;;;;;;21.67;6.63;;;7.90;99.90;;;;;;4985196;28;20664;-57
2023/04/25 01:15:36;;;;;;;17.90;5.90;;;7.90;99.90;;;;;;4988616;28;20366;-57
2023/04/25 01:18:07;;;;;;;19.27;6.30;;;7.90;99.90;;;;;;4983954;28;20688;-56
2023/04/25 01:20:35;;;;;;;18.17;6.37;;;7.90;99.90;;;;;;4989196;28;20264;-57
2023/04/25 01:23:05;;;;;;;22.80;6.30;;;7.90;99.90;;;;;;4983794;28;20246;-57
2023/04/25 01:25:33;;;;;;;17.03;6.43;;;7.90;99.90;;;;;;4987692;28;20514;-57
2023/04/25 01:28:02;;;;;;;28.13;6.53;;;7.80;99.90;;;;;;4988603;28;20428;-57
2023/04/25 01:30:30;;;;;;;22.40;6.17;;;7.80;99.90;;;;;;4983298;28;20253;-57
2023/04/25 01:32:59;;;;;;;24.70;6.07;;;7.80;99.90;;;;;;4990356;28;20335;-57
2023/04/25 01:35:28;;;;;;;18.67;6.13;;;7.80;99.90;;;;;;4988806;28;20228;-57
2023/04/25 01:37:56;;;;;;;18.37;5.67;;;7.80;99.90;;;;;;4990884;28;20246;-57
2023/04/25 01:40:26;;;;;;;19.07;6.13;;;7.80;99.90;;;;;;4985352;28;20221;-58
2023/04/25 01:42:54;;;;;;;25.20;5.60;;;7.80;99.90;;;;;;4989351;28;20653;-57
2023/04/25 01:45:23;;;;;;;17.87;6.03;;;7.70;99.90;;;;;;4974570;28;20254;-57
2023/04/25 01:47:51;;;;;;;29.37;6.37;;;7.70;99.90;;;;;;4986242;28;20270;-57
2023/04/25 01:50:20;;;;;;;29.03;7.07;;;7.70;99.90;;;;;;4983799;28;20629;-57
2023/04/25 01:52:49;;;;;;;21.93;5.80;;;7.70;99.90;;;;;;4986926;28;20772;-57
2023/04/25 01:55:17;;;;;;;22.60;6.27;;;7.70;99.90;;;;;;4968852;28;20207;-57
2023/04/25 01:57:46;;;;;;;17.33;5.90;;;7.70;99.90;;;;;;4991494;28;20491;-57
2023/04/25 02:00:15;;;;;;;18.60;5.57;;;7.70;99.90;;;;;;4983164;28;20222;-57
2023/04/25 02:02:43;;;;;;;21.00;5.90;;;7.70;99.90;;;;;;4991313;28;20688;-57
2023/04/25 02:05:12;;;;;;;16.50;5.40;;;7.70;99.90;;;;;;4996027;28;20569;-57
2023/04/25 02:07:40;;;;;;;20.17;6.00;;;7.70;99.90;;;;;;4986686;28;20542;-57
2023/04/25 02:10:09;;;;;;;20.10;5.70;;;7.70;99.90;;;;;;4979785;28;20195;-57
2023/04/25 02:12:37;;;;;;;16.47;5.30;;;7.70;99.90;;;;;;4989281;28;20835;-57
2023/04/25 02:15:08;;;;;;;17.70;5.23;;;7.70;99.90;;;;;;4990948;28;20223;-57
2023/04/25 02:17:36;;;;;;;22.33;5.77;;;7.70;99.90;;;;;;4986702;28;20219;-57
2023/04/25 02:20:06;;;;;;;18.60;5.77;;;7.70;99.90;;;;;;4983156;28;20681;-57
2023/04/25 02:22:35;;;;;;;10.63;4.70;;;7.70;99.90;;;;;;4989592;28;20182;-56
2023/04/25 02:25:04;;;;;;;21.23;6.10;;;7.70;99.90;;;;;;4990217;28;20281;-57
2023/04/25 02:27:33;;;;;;;15.53;5.23;;;7.60;99.90;;;;;;4994087;28;20273;-57
2023/04/25 02:30:01;;;;;;;18.97;5.27;;;7.60;99.90;;;;;;4987243;28;20214;-57
2023/04/25 02:32:30;;;;;;;22.63;5.43;;;7.60;99.90;;;;;;4994850;28;20693;-57
2023/04/25 02:35:03;;;;;;;20.10;5.17;;;7.60;99.90;;;;;;4991447;28;20273;-57
2023/04/25 02:37:31;;;;;;;21.17;5.80;;;7.50;99.90;;;;;;4988440;28;20195;-56
2023/04/25 02:40:00;;;;;;;22.37;5.30;;;7.50;99.90;;;;;;4994197;28;20210;-57
2023/04/25 02:42:28;;;;;;;21.13;5.70;;;7.50;99.90;;;;;;4989618;28;20735;-56
2023/04/25 02:44:56;;;;;;;23.50;6.47;;;7.40;99.90;;;;;;4986625;28;20215;-57
2023/04/25 02:47:25;;;;;;;25.07;6.00;;;7.30;99.90;;;;;;4988441;28;20210;-57
2023/04/25 02:49:55;;;;;;;16.03;5.37;;;7.30;99.90;;;;;;4986965;28;20807;-57
2023/04/25 02:52:23;;;;;;;19.33;5.90;;;7.20;99.90;;;;;;4989189;28;20211;-56
2023/04/25 02:54:51;;;;;;;16.43;5.40;;;7.20;99.90;;;;;;4989576;28;20266;-57
2023/04/25 02:57:19;;;;;;;15.07;5.37;;;7.10;99.90;;;;;;4991438;28;20569;-57
2023/04/25 02:59:47;;;;;;;14.07;4.77;;;7.10;99.90;;;;;;4995359;28;20227;-56
2023/04/25 03:02:16;;;;;;;16.37;5.10;;;7.10;99.90;;;;;;4994050;28;20218;-57
2023/04/25 03:04:44;;;;;;;14.53;4.87;;;7.00;99.90;;;;;;4990583;28;20238;-57
2023/04/25 03:07:14;;;;;;;18.83;5.63;;;7.10;99.90;;;;;;4974545;28;20206;-56
2023/04/25 03:09:42;;;;;;;22.70;5.17;;;7.00;99.90;;;;;;4992688;28;20230;-57
2023/04/25 03:12:10;;;;;;;19.30;5.77;;;7.00;99.90;;;;;;4989415;28;20226;-57
2023/04/25 03:14:38;;;;;;;13.30;4.80;;;7.00;99.90;;;;;;4992463;28;20245;-56
2023/04/25 03:17:07;;;;;;;26.27;5.87;;;7.00;99.90;;;;;;4990233;28;20226;-57
2023/04/25 03:19:35;;;;;;;18.47;5.17;;;7.00;99.90;;;;;;4990569;28;20203;-57
2023/04/25 03:22:03;;;;;;;20.47;6.00;;;7.00;99.90;;;;;;4993755;28;20195;-57
2023/04/25 03:24:33;;;;;;;11.50;4.37;;;6.90;99.90;;;;;;4993202;28;20288;-57
2023/04/25 03:27:01;;;;;;;16.33;5.50;;;6.90;99.90;;;;;;4994307;28;20222;-57
2023/04/25 03:29:29;;;;;;;15.40;5.40;;;6.90;99.90;;;;;;4987822;28;20223;-57
2023/04/25 03:31:58;;;;;;;21.03;5.57;;;6.90;99.90;;;;;;4997679;28;20222;-57
2023/04/25 03:34:27;;;;;;;20.20;5.87;;;6.90;99.90;;;;;;4992835;28;20194;-57
2023/04/25 03:36:55;;;;;;;17.37;5.33;;;6.90;99.90;;;;;;4997056;28;20533;-57
2023/04/25 03:39:23;;;;;;;22.03;5.60;;;6.90;99.90;;;;;;5000548;28;20230;-57
2023/04/25 03:41:53;;;;;;;23.67;5.87;;;6.80;99.90;;;;;;4989890;28;20227;-57
2023/04/25 03:44:21;;;;;;;16.47;5.93;;;6.80;99.90;;;;;;4989782;28;21700;-56
2023/04/25 03:46:49;;;;;;;20.00;6.70;;;6.80;99.90;;;;;;4993835;28;20218;-56
2023/04/25 03:49:17;;;;;;;23.83;5.87;;;6.80;99.90;;;;;;4992187;28;20261;-57
2023/04/25 03:51:46;;;;;;;19.33;5.13;;;6.80;99.90;;;;;;4992012;28;20218;-57
2023/04/25 03:54:15;;;;;;;21.63;6.00;;;6.80;99.90;;;;;;4990984;28;20272;-57
2023/04/25 03:56:43;;;;;;;19.63;6.03;;;6.80;99.90;;;;;;4973545;28;20270;-56
2023/04/25 03:59:12;;;;;;;23.80;5.43;;;6.80;99.90;;;;;;4988245;28;20227;-57
2023/04/25 04:01:41;;;;;;;15.70;5.77;;;6.80;99.90;;;;;;5001146;28;20723;-56
2023/04/25 04:04:09;;;;;;;20.37;5.60;;;6.80;99.90;;;;;;4982060;28;20676;-57
2023/04/25 04:06:37;;;;;;;13.17;5.40;;;6.80;99.90;;;;;;4992867;28;20223;-56
2023/04/25 04:09:09;;;;;;;15.30;5.33;;;6.80;99.90;;;;;;4991662;28;20226;-57
2023/04/25 04:11:38;;;;;;;19.50;5.70;;;6.80;99.90;;;;;;4990635;28;20225;-56
2023/04/25 04:14:07;;;;;;;18.70;5.60;;;6.80;99.90;;;;;;4993757;28;20231;-57
2023/04/25 04:16:36;;;;;;;18.17;5.13;;;6.80;99.90;;;;;;4977761;28;20600;-56
2023/04/25 04:19:05;;;;;;;21.53;5.47;;;6.80;99.90;;;;;;4991984;28;20207;-56
2023/04/25 04:21:33;;;;;;;16.43;5.13;;;6.80;99.90;;;;;;4992232;28;20242;-57
2023/04/25 04:24:01;;;;;;;14.47;5.70;;;6.80;99.90;;;;;;4991495;28;20273;-56
2023/04/25 04:26:31;;;;;;;12.40;5.10;;;6.80;99.90;;;;;;4986334;28;20227;-57
2023/04/25 04:29:00;;;;;;;16.77;4.90;;;6.80;99.90;;;;;;4991320;28;20218;-57
2023/04/25 04:31:28;;;;;;;18.77;5.40;;;6.80;99.90;;;;;;4989673;28;20214;-57
2023/04/25 04:33:57;;;;;;;20.60;5.10;;;6.80;99.90;;;;;;4986024;28;20207;-57
2023/04/25 04:36:26;;;;;;;20.77;5.13;;;6.70;99.90;;;;;;4990582;28;20321;-56
2023/04/25 04:38:56;;;;;;;10.37;5.00;;;6.80;99.90;;;;;;4987381;28;20218;-57
2023/04/25 04:41:24;;;;;;;15.63;5.33;;;6.80;99.90;;;;;;4988360;28;20218;-57
2023/04/25 04:43:53;;;;;;;14.43;5.03;;;6.80;99.90;;;;;;4986920;28;20230;-57
2023/04/25 04:46:21;;;;;;;14.37;4.90;;;6.70;99.90;;;;;;4987483;28;20195;-56
2023/04/25 04:48:49;;;;;;;14.70;5.43;;;6.80;99.90;;;;;;4987690;28;20271;-56
2023/04/25 04:51:20;;;;;;;14.67;5.13;;;6.80;99.90;;;;;;4989700;28;20239;-56
2023/04/25 04:53:48;;;;;;;13.07;5.30;;;6.80;99.90;;;;;;4985690;28;20562;-57
2023/04/25 04:56:17;;;;;;;12.97;5.67;;;6.80;99.90;;;;;;4990405;28;20601;-57
2023/04/25 04:58:52;;;;;;;15.97;4.93;;;6.80;99.90;;;;;;4987789;28;20218;-57
2023/04/25 05:01:20;;;;;;;16.03;5.53;;;6.80;99.90;;;;;;4981896;28;20202;-57
2023/04/25 05:03:48;;;;;;;11.03;4.93;;;6.80;99.90;;;;;;4974914;28;20241;-57
2023/04/25 05:06:19;;;;;;;10.53;5.20;;;6.80;99.90;;;;;;4998015;28;20301;-57
2023/04/25 05:08:48;;;;;;;9.90;4.90;;;6.80;99.90;;;;;;4987341;28;20284;-57
2023/04/25 05:11:17;;;;;;;18.73;5.13;;;6.80;99.90;;;;;;4990532;28;20318;-57
2023/04/25 05:13:45;;;;;;;19.50;5.07;;;6.80;99.90;;;;;;4990668;28;20325;-57
2023/04/25 05:16:13;;;;;;;11.70;4.70;;;6.80;99.90;;;;;;4970115;28;20196;-56
2023/04/25 05:18:42;;;;;;;17.57;5.43;;;6.80;99.90;;;;;;4991519;28;20682;-57
2023/04/25 05:21:11;;;;;;;14.23;5.10;;;6.80;99.90;;;;;;4989195;28;20219;-57
2023/04/25 05:23:40;;;;;;;13.07;5.07;;;6.80;99.90;;;;;;4987564;28;20218;-57
2023/04/25 05:26:13;;;;;;;14.07;5.47;;;6.80;99.90;;;;;;4987486;28;20223;-57
2023/04/25 05:28:42;;;;;;;11.63;4.40;;;6.80;99.90;;;;;;4986020;28;20777;-57
2023/04/25 05:31:11;;;;;;;13.73;4.83;;;6.80;99.90;;;;;;4986710;28;20202;-57
2023/04/25 05:33:39;;;;;;;17.40;5.07;;;6.80;99.90;;;;;;4995042;28;20244;-57
2023/04/25 05:36:08;;;;;;;10.07;4.90;;;6.80;99.90;;;;;;4983561;28;20242;-57
2023/04/25 05:38:36;;;;;;;23.43;5.13;;;6.80;99.90;;;;;;4986516;28;20281;-56
2023/04/25 05:41:07;;;;;;;15.60;4.80;;;6.80;99.90;;;;;;4985264;28;20607;-57
2023/04/25 05:43:35;;;;;;;15.43;4.97;;;6.80;99.90;;;;;;4984732;28;20191;-57
2023/04/25 05:46:03;;;;;;;13.67;4.70;;;6.80;99.90;;;;;;4982565;28;20227;-57
2023/04/25 05:48:31;;;;;;;15.83;5.10;;;6.80;99.90;;;;;;4985507;28;20231;-57
2023/04/25 05:51:00;;;;;;;16.43;4.63;;;6.80;99.90;;;;;;4981673;28;20210;-57
2023/04/25 05:53:28;;;;;;;14.67;4.90;;;6.90;99.90;;;;;;4992362;28;20226;-57
2023/04/25 05:55:56;;;;;;;13.87;4.90;;;7.10;99.90;;;;;;4984087;28;20234;-57
2023/04/25 05:58:26;;;;;;;15.80;5.07;;;7.30;99.90;;;;;;4988130;28;20245;-57
2023/04/25 06:00:54;;;;;;;11.97;4.90;;;7.60;99.90;;;;;;4991029;28;20198;-57
2023/04/25 06:03:22;;;;;;;6.20;4.40;;;7.80;99.90;;;;;;4985827;28;20226;-57
2023/04/25 06:05:51;;;;;;;11.27;4.27;;;7.90;99.90;;;;;;4987599;28;20234;-57
2023/04/25 06:08:19;;;;;;;14.67;5.17;;;8.00;99.90;;;;;;4989726;28;20222;-57
2023/04/25 06:10:47;;;;;;;13.27;4.63;;;8.00;99.90;;;;;;4990438;28;20226;-57
2023/04/25 06:13:15;;;;;;;17.27;4.43;;;8.10;99.90;;;;;;4992679;28;20216;-57
2023/04/25 06:15:45;;;;;;;12.23;4.73;;;8.10;99.90;;;;;;4987960;28;20860;-57
2023/04/25 06:18:13;;;;;;;14.53;4.87;;;8.10;99.90;;;;;;4989379;28;20230;-56
2023/04/25 06:20:41;;;;;;;13.87;4.97;;;8.10;99.90;;;;;;4989033;28;20222;-57
2023/04/25 06:23:09;;;;;;;24.80;5.37;;;8.10;99.90;;;;;;4993942;28;20226;-57
2023/04/25 06:25:38;;;;;;;18.10;5.10;;;8.10;99.90;;;;;;4979822;28;20326;-57
2023/04/25 06:28:06;;;;;;;17.50;5.00;;;8.00;99.90;;;;;;4968693;28;20261;-57
2023/04/25 06:30:34;;;;;;;12.90;4.60;;;8.10;99.90;;;;;;4994001;28;20214;-57
2023/04/25 06:33:04;;;;;;;13.53;4.43;;;8.00;99.90;;;;;;4995021;28;20214;-57
2023/04/25 06:35:32;;;;;;;14.90;4.47;;;8.00;99.90;;;;;;4993119;28;20258;-58
2023/04/25 06:38:00;;;;;;;16.43;5.37;;;8.10;99.90;;;;;;4993914;28;20222;-57
2023/04/25 06:40:28;;;;;;;10.10;4.00;;;8.10;99.90;;;;;;4994972;28;20592;-57
2023/04/25 06:42:56;;;;;;;11.47;3.97;;;8.00;99.90;;;;;;4992815;28;20199;-57
2023/04/25 06:45:25;;;;;;;9.60;3.80;;;8.10;99.90;;;;;;4993684;28;20665;-57
2023/04/25 06:47:53;;;;;;;14.20;3.90;;;8.00;99.90;;;;;;4995627;28;20218;-57
2023/04/25 06:50:22;;;;;;;14.77;4.30;;;8.10;99.90;;;;;;4991104;28;20708;-55
2023/04/25 06:52:50;;;;;;;20.13;4.43;;;8.20;99.90;;;;;;4993473;28;20280;-57
2023/04/25 06:55:19;;;;;;;16.43;3.80;;;8.30;99.90;;;;;;4993645;28;20269;-57
2023/04/25 06:57:47;;;;;;;10.13;3.63;;;8.40;99.90;;;;;;4987435;28;20226;-57
2023/04/25 07:00:16;;;;;;;9.73;3.77;;;8.40;99.90;;;;;;4992561;28;20219;-57
2023/04/25 07:02:45;;;;;;;14.63;3.70;;;8.50;99.90;;;;;;4990947;28;20272;-57
2023/04/25 07:05:13;;;;;;;10.50;4.10;;;8.70;99.90;;;;;;4986803;28;20314;-57
2023/04/25 07:07:42;;;;;;;8.87;3.40;;;8.70;99.90;;;;;;4992503;28;20681;-57
2023/04/25 07:10:11;;;;;;;13.67;3.83;;;8.70;99.90;;;;;;4993613;28;20257;-57
2023/04/25 07:12:39;;;;;;;7.10;3.17;;;8.80;99.90;;;;;;4993414;28;20222;-57
2023/04/25 07:15:09;;;;;;;14.40;3.87;;;8.80;99.90;;;;;;4990166;28;20268;-57
2023/04/25 07:17:38;;;;;;;9.80;3.40;;;9.00;99.90;;;;;;4988533;28;20215;-57
2023/04/25 07:20:09;;;;;;;12.53;3.60;;;9.00;99.90;;;;;;4989624;28;20223;-57
2023/04/25 07:22:37;;;;;;;9.57;3.20;;;9.20;99.90;;;;;;4992964;28;20639;-57
2023/04/25 07:25:08;;;;;;;10.37;3.30;;;9.40;99.90;;;;;;4994739;28;20191;-57
2023/04/25 07:27:36;;;;;;;13.83;3.33;;;9.50;99.90;;;;;;4992501;28;20222;-58
2023/04/25 07:30:06;;;;;;;13.57;4.07;;;9.60;99.90;;;;;;4989007;28;20277;-57
2023/04/25 07:32:34;;;;;;;10.87;3.30;;;9.70;99.90;;;;;;4992885;28;20226;-57
2023/04/25 07:35:03;;;;;;;10.97;3.17;;;9.50;99.90;;;;;;4990289;28;20226;-57
2023/04/25 07:37:31;;;;;;;8.33;2.80;;;9.60;99.90;;;;;;4993126;28;20581;-57
2023/04/25 07:39:59;;;;;;;7.47;2.73;;;9.50;99.90;;;;;;4992046;28;20199;-57
2023/04/25 07:42:29;;;;;;;13.77;3.43;;;9.50;99.90;;;;;;4993523;28;20704;-57
2023/04/25 07:44:58;;;;;;;6.37;2.83;;;9.60;99.90;;;;;;4990426;28;20223;-57
2023/04/25 07:47:26;;;;;;;10.50;3.03;;;9.70;99.90;;;;;;4988232;28;20632;-57
2023/04/25 07:49:54;;;;;;;14.13;3.07;;;10.00;99.90;;;;;;4991722;28;20696;-57
2023/04/25 07:52:22;;;;;;;7.60;2.73;;;10.20;99.90;;;;;;4994887;28;20250;-57
2023/04/25 07:54:50;;;;;;;7.00;2.23;;;10.50;99.90;;;;;;4994221;28;20219;-58
2023/04/25 07:57:19;;;;;;;4.03;2.13;;;10.80;99.90;;;;;;4991386;28;20704;-57
2023/04/25 07:59:49;;;;;;;10.83;2.70;;;10.90;99.90;;;;;;4992569;28;20301;-57
2023/04/25 08:02:17;;;;;;;7.20;2.63;;;11.20;99.90;;;;;;4990134;28;20608;-57
2023/04/25 08:04:49;;;;;;;8.03;2.70;;;11.90;99.90;;;;;;4987614;28;20214;-57
2023/04/25 08:07:18;;;;;;;6.07;2.23;;;12.60;99.90;;;;;;4996178;28;20273;-58
2023/04/25 08:09:46;;;;;;;9.47;2.40;;;12.50;99.90;;;;;;4993037;28;20215;-57
2023/04/25 08:12:16;;;;;;;7.67;2.20;;;12.40;99.90;;;;;;4986894;28;20661;-58
2023/04/25 08:14:45;;;;;;;5.90;2.70;;;12.50;99.90;;;;;;4990920;28;20223;-57
2023/04/25 08:17:15;;;;;;;7.73;2.67;;;12.40;99.90;;;;;;4990648;28;20218;-57
2023/04/25 08:19:43;;;;;;;6.97;2.43;;;11.90;99.90;;;;;;4990868;28;20195;-57
2023/04/25 08:22:12;;;;;;;5.73;2.30;;;11.30;99.90;;;;;;4988870;28;20191;-57
2023/04/25 08:24:40;;;;;;;7.37;2.33;;;10.80;99.90;;;;;;4991211;28;20501;-57
2023/04/25 08:27:09;;;;;;;9.53;2.47;;;10.30;99.90;;;;;;4987957;28;20262;-57
2023/04/25 08:29:38;;;;;;;7.50;2.47;;;10.10;99.90;;;;;;4970855;28;20223;-57
2023/04/25 08:32:06;;;;;;;8.27;2.50;;;9.90;99.90;;;;;;4987008;28;20601;-57
2023/04/25 08:34:36;;;;;;;5.57;2.50;;;9.80;99.90;;;;;;4993237;28;20183;-57
2023/04/25 08:37:05;;;;;;;9.43;2.57;;;9.80;99.90;;;;;;4987774;28;20204;-58
2023/04/25 08:39:33;;;;;;;4.60;1.93;;;9.80;99.90;;;;;;4990416;28;20676;-57
2023/04/25 08:42:04;;;;;;;5.17;2.27;;;9.90;99.90;;;;;;4987823;28;20771;-57
2023/04/25 08:44:34;;;;;;;4.40;2.10;;;10.10;99.90;;;;;;4991421;28;20285;-57
2023/04/25 08:47:04;;;;;;;18.27;3.37;;;10.10;99.90;;;;;;4986474;28;20231;-57
2023/04/25 08:49:35;;;;;;;10.37;3.00;;;10.30;99.90;;;;;;4992357;28;20195;-58
2023/04/25 08:52:06;;;;;;;7.77;2.60;;;10.80;99.90;;;;;;4991750;28;20680;-58
2023/04/25 08:54:35;;;;;;;7.37;2.23;;;11.40;99.90;;;;;;4990265;28;20628;-58
2023/04/25 08:57:07;;;;;;;6.40;2.23;;;12.30;99.90;;;;;;4988194;28;20255;-58
2023/04/25 08:59:37;;;;;;;6.43;2.13;;;13.30;99.90;;;;;;4992339;28;20742;-58
2023/04/25 09:02:06;;;;;;;2.37;1.87;;;13.90;99.90;;;;;;4985360;28;20305;-58
2023/04/25 09:04:36;;;;;;;7.10;2.27;;;14.60;99.90;;;;;;4989485;28;20265;-58
2023/04/25 09:07:04;;;;;;;4.70;1.70;;;14.40;99.90;;;;;;4991666;28;20277;-59
2023/04/25 09:09:32;;;;;;;2.33;1.77;;;13.80;99.90;;;;;;4986930;28;20225;-58
2023/04/25 09:12:01;;;;;;;4.13;1.80;;;13.10;99.90;;;;;;4990062;28;20271;-58
2023/04/25 09:14:30;;;;;;;3.97;1.90;;;12.60;99.90;;;;;;4989411;28;20637;-57
2023/04/25 09:17:03;;;;;;;7.20;2.50;;;12.10;99.90;;;;;;4991691;28;21060;-57
2023/04/25 09:19:35;;;;;;;3.20;2.03;;;11.60;99.90;;;;;;4991067;28;20209;-58
2023/04/25 09:22:10;;;;;;;6.47;2.00;;;12.00;99.90;;;;;;4987943;28;20198;-58
2023/04/25 09:24:40;;;;;;;7.20;2.07;;;12.90;99.90;;;;;;4986384;28;20265;-58
2023/04/25 09:27:10;;;;;;;5.00;1.90;;;12.80;99.90;;;;;;4988870;28;20215;-58
2023/04/25 09:29:40;;;;;;;7.30;2.27;;;13.50;99.90;;;;;;4990301;28;20235;-57
2023/04/25 09:32:17;;;;;;;5.87;1.83;;;14.50;99.90;;;;;;4990377;28;20292;-58
2023/04/25 09:34:49;;;;;;;5.33;1.87;;;15.40;99.90;;;;;;4986906;28;20229;-59
2023/04/25 09:37:23;;;;;;;6.10;2.13;;;16.50;99.90;;;;;;4972195;28;20214;-58
2023/04/25 09:39:55;;;;;;;6.07;2.17;;;16.90;99.90;;;;;;4985909;28;21856;-58
2023/04/25 09:42:26;;;;;;;3.83;2.10;;;16.20;99.90;;;;;;4990849;28;20215;-58
2023/04/25 09:44:56;;;;;;;2.90;1.80;;;16.40;99.90;;;;;;4992715;28;20218;-58
2023/04/25 09:47:26;;;;;;;3.53;1.73;;;16.20;99.90;;;;;;4991818;28;20596;-57
2023/04/25 09:49:56;;;;;;;4.50;1.40;;;15.70;99.90;;;;;;4987548;28;20625;-58
2023/04/25 09:52:26;;;;;;;4.97;2.07;;;15.20;99.90;;;;;;4991491;28;20245;-58
2023/04/25 09:54:54;;;;;;;3.10;1.80;;;14.60;99.90;;;;;;4991811;28;20583;-58
2023/04/25 09:57:24;;;;;;;2.93;1.50;;;14.00;99.90;;;;;;4987322;28;20221;-57
2023/04/25 09:59:53;;;;;;;2.70;1.90;;;13.10;99.90;;;;;;4990861;28;20310;-58
2023/04/25 10:02:24;;;;;;;8.20;2.60;;;12.50;99.90;;;;;;4988767;28;20965;-57
2023/04/25 10:04:54;;;;;;;8.73;2.20;;;11.90;99.90;;;;;;4988702;28;20250;-57
2023/04/25 10:07:31;;;;;;;3.97;2.40;;;11.30;99.90;;;;;;4991800;28;20782;-57
2023/04/25 10:10:02;;;;;;;5.93;2.00;;;10.90;99.90;;;;;;4992426;28;20232;-57
2023/04/25 10:12:31;;;;;;;5.13;2.20;;;10.60;99.90;;;;;;4984068;28;20276;-57
2023/04/25 10:15:00;;;;;;;7.10;2.37;;;10.50;99.90;;;;;;4990349;28;20267;-57
2023/04/25 10:17:28;;;;;;;6.40;2.23;;;10.20;99.90;;;;;;4989902;28;20621;-57
2023/04/25 10:19:57;;;;;;;9.47;2.57;;;9.80;99.90;;;;;;4971654;28;20229;-58
2023/04/25 10:22:34;;;;;;;10.03;2.40;;;9.80;99.90;;;;;;4991416;28;20629;-57
2023/04/25 10:25:04;;;;;;;6.90;2.37;;;9.80;99.90;;;;;;4989605;28;20591;-57
2023/04/25 10:27:35;;;;;;;4.83;2.03;;;9.80;99.90;;;;;;4986093;28;20573;-57
2023/04/25 10:30:05;;;;;;;6.00;2.23;;;10.00;99.90;;;;;;4992220;28;20562;-57
2023/04/25 10:32:34;;;;;;;2.90;2.00;;;10.30;99.90;;;;;;4990522;28;20587;-57
2023/04/25 10:35:13;;;;;;;2.20;2.00;;;10.40;99.90;;;;;;4986654;28;20247;-57
2023/04/25 10:38:03;;;;;;;4.10;2.00;;;10.40;99.90;;;;;;4984527;28;20218;-57
2023/04/25 10:40:32;;;;;;;5.57;2.10;;;10.40;99.90;;;;;;4987600;28;20744;-57
2023/04/25 10:43:33;;;;;;;4.93;2.00;;;10.50;99.90;;;;;;4991030;28;20542;-57
2023/04/25 10:46:02;;;;;;;4.93;2.13;;;10.60;99.90;;;;;;4989232;28;20702;-57
2023/04/25 10:48:32;;;;;;;3.10;1.67;;;10.80;99.90;;;;;;4986813;28;20226;-57
2023/04/25 10:51:09;;;;;;;5.10;2.00;;;10.80;99.90;;;;;;4984024;28;20672;-57
2023/04/25 10:53:39;;;;;;;3.90;2.00;;;10.80;99.90;;;;;;4988444;28;20214;-57
2023/04/25 10:56:18;;;;;;;4.27;1.90;;;11.00;99.90;;;;;;4989255;28;20247;-57
2023/04/25 10:58:47;;;;;;;4.53;1.90;;;11.30;99.90;;;;;;4981130;28;20229;-57
2023/04/25 11:01:22;;;;;;;4.93;1.90;;;11.50;99.90;;;;;;4984059;28;20202;-57
2023/04/25 11:03:57;;;;;;;5.17;2.40;;;11.60;99.90;;;;;;4985784;28;20292;-58
2023/04/25 11:06:36;;;;;;;4.03;1.80;;;11.50;99.90;;;;;;4970822;28;20219;-57
2023/04/25 11:09:13;;;;;;;6.63;2.23;;;11.60;99.90;;;;;;4987163;28;20211;-57
2023/04/25 11:11:41;;;;;;;3.33;1.97;;;11.50;99.90;;;;;;4988296;28;20667;-57
2023/04/25 11:14:10;;;;;;;3.03;1.90;;;11.90;99.90;;;;;;4967768;28;20230;-57
2023/04/25 11:16:38;;;;;;;3.33;1.77;;;13.10;99.90;;;;;;4982700;28;20254;-57
2023/04/25 11:19:06;;;;;;;4.07;1.70;;;14.20;99.90;;;;;;4988374;28;20202;-57
2023/04/25 11:21:34;;;;;;;3.63;1.60;;;14.20;99.90;;;;;;4989708;28;20261;-57
2023/04/25 11:24:03;;;;;;;1.50;1.37;;;14.70;99.90;;;;;;4989053;28;20269;-58
2023/04/25 11:26:32;;;;;;;2.47;1.40;;;15.00;99.90;;;;;;4992137;28;20228;-57
2023/04/25 11:29:01;;;;;;;2.23;1.77;;;14.90;99.90;;;;;;4989763;28;20228;-57
2023/04/25 11:31:30;;;;;;;4.47;2.10;;;14.20;99.90;;;;;;4974262;28;20205;-57
2023/04/25 11:33:59;;;;;;;3.03;1.70;;;14.20;99.90;;;;;;4991883;28;20199;-58
2023/04/25 11:36:28;;;;;;;1.83;1.50;;;14.60;99.90;;;;;;4992443;28;20226;-58
2023/04/25 11:38:56;;;;;;;2.43;1.53;;;15.40;99.90;;;;;;4992538;28;20296;-57
2023/04/25 11:41:26;;;;;;;5.60;1.97;;;15.50;99.90;;;;;;4993315;28;20230;-58
2023/04/25 11:43:56;;;;;;;3.00;1.60;;;15.20;99.90;;;;;;4975858;28;20233;-57
2023/04/25 11:46:25;;;;;;;2.77;1.60;;;15.50;99.90;;;;;;4988792;28;20683;-58
2023/04/25 11:48:58;;;;;;;2.60;1.43;;;15.30;99.90;;;;;;4994348;28;20308;-57
2023/04/25 11:51:26;;;;;;;3.40;1.50;;;15.60;99.90;;;;;;4992346;28;20225;-57
2023/04/25 11:53:55;;;;;;;3.00;1.60;;;14.70;99.90;;;;;;4991661;28;20241;-57
2023/04/25 11:56:23;;;;;;;4.00;1.67;;;14.30;99.90;;;;;;4987839;28;20227;-57
2023/04/25 11:59:00;;;;;;;3.90;1.90;;;14.70;99.90;;;;;;4993880;28;20243;-57
2023/04/25 12:01:30;;;;;;;1.93;1.63;;;14.20;99.90;;;;;;4992173;28;20521;-58
2023/04/25 12:04:12;;;;;;;3.30;1.70;;;14.00;99.90;;;;;;4988879;28;20620;-57
2023/04/25 12:06:42;;;;;;;3.53;1.53;;;13.40;99.90;;;;;;4992163;28;20246;-57
2023/04/25 12:09:13;;;;;;;2.13;1.97;;;13.40;99.90;;;;;;4993376;28;20310;-57
2023/04/25 12:11:45;;;;;;;3.80;2.03;;;13.40;99.90;;;;;;4975215;28;20301;-58
2023/04/25 12:14:33;;;;;;;1.80;1.70;;;13.30;99.90;;;;;;4993478;28;20283;-57
2023/04/25 12:17:03;;;;;;;5.13;2.10;;;13.20;99.90;;;;;;4987568;28;20285;-57
2023/04/25 12:19:36;;;;;;;3.80;1.97;;;13.40;99.90;;;;;;4991428;28;20545;-57
2023/04/25 12:22:19;;;;;;;2.03;1.60;;;14.10;99.90;;;;;;4990845;28;20564;-57
2023/04/25 12:24:47;;;;;;;4.37;2.27;;;14.60;99.90;;;;;;4991786;28;20415;-57
2023/04/25 12:27:18;;;;;;;3.60;1.97;;;15.50;99.90;;;;;;4991240;28;20254;-58
2023/04/25 12:29:54;;;;;;;2.30;2.10;;;16.00;99.90;;;;;;4985443;28;20218;-58
2023/04/25 12:32:22;;;;;;;5.40;2.13;;;16.30;99.90;;;;;;4990446;28;20709;-58
2023/04/25 12:34:51;;;;;;;3.37;1.87;;;16.40;99.90;;;;;;4989901;28;20273;-57
2023/04/25 12:37:19;;;;;;;3.10;1.87;;;16.00;99.90;;;;;;4990470;28;20214;-57
2023/04/25 12:39:47;;;;;;;4.77;1.97;;;15.40;99.90;;;;;;4972113;28;20230;-58
2023/04/25 12:42:15;;;;;;;5.20;2.03;;;14.50;99.90;;;;;;4987890;28;20242;-57
2023/04/25 12:44:44;;;;;;;6.43;1.90;;;13.60;99.90;;;;;;4990707;28;20249;-57
2023/04/25 12:47:14;;;;;;;2.00;1.60;;;13.30;99.90;;;;;;4990958;28;20231;-57
2023/04/25 12:49:42;;;;;;;1.97;1.87;;;13.40;99.90;;;;;;4993058;28;20211;-57
2023/04/25 12:52:11;;;;;;;1.70;1.60;;;13.40;99.90;;;;;;4988132;28;20291;-57
2023/04/25 12:54:39;;;;;;;4.47;2.00;;;13.50;99.90;;;;;;4990731;28;20237;-58
2023/04/25 12:57:07;;;;;;;3.00;1.97;;;13.20;99.90;;;;;;4990409;28;20219;-58
2023/04/25 12:59:36;;;;;;;4.10;1.90;;;13.60;99.90;;;;;;4990855;28;20265;-58
2023/04/25 13:02:04;;;;;;;6.67;2.03;;;14.10;99.90;;;;;;4990447;28;20609;-57